Time;durP1;ratioP1;P1;durP2;ratioP2;P2;SDS_P1;SDS_P2;PMS_P1;PMS_P2;Temp;Humidity;BMP_temperature;BMP_pressure;BME280_temperature;BME280_humidity;BME280_pressure;Samples;Min_cycle;Max_cycle;Signal;HPM_P1;HPM_P2
2023/07/15 00:00:13;;;;;;;7.23;4.10;;;22.00;99.90;;;;;;5080339;28;20469;-60
2023/07/15 00:02:43;;;;;;;7.40;3.10;;;22.00;92.50;;;;;;5080565;28;20449;-60
2023/07/15 00:05:18;;;;;;;4.23;3.03;;;22.30;99.90;;;;;;5079530;28;20466;-61
2023/07/15 00:07:48;;;;;;;7.63;4.03;;;21.90;90.50;;;;;;5080762;28;20419;-60
2023/07/15 00:10:18;;;;;;;11.53;3.87;;;22.10;93.40;;;;;;5079759;28;20470;-60
2023/07/15 00:12:45;;;;;;;6.80;3.90;;;22.50;99.90;;;;;;5080119;28;20473;-60
2023/07/15 00:15:14;;;;;;;5.23;3.90;;;21.80;99.90;;;;;;5079922;28;20477;-60
2023/07/15 00:17:41;;;;;;;4.53;3.80;;;;;;;;;;5080223;28;20506;-60
2023/07/15 00:20:14;;;;;;;4.80;4.10;;;22.30;92.30;;;;;;5080860;28;20498;-61
2023/07/15 00:22:43;;;;;;;3.77;3.47;;;21.50;99.90;;;;;;5080594;28;20438;-60
2023/07/15 00:25:13;;;;;;;8.20;4.27;;;21.90;99.90;;;;;;5080230;28;20572;-60
2023/07/15 00:27:41;;;;;;;5.10;3.50;;;21.70;99.90;;;;;;5080243;28;20934;-59
2023/07/15 00:30:13;;;;;;;5.80;2.97;;;22.00;94.70;;;;;;5079679;28;20497;-61
2023/07/15 00:32:41;;;;;;;5.43;4.13;;;22.20;99.90;;;;;;5079662;28;20434;-60
2023/07/15 00:35:18;;;;;;;6.77;3.70;;;21.80;99.90;;;;;;5078821;28;20474;-61
2023/07/15 00:37:46;;;;;;;4.13;3.40;;;;;;;;;;5079602;28;20973;-61
2023/07/15 00:40:14;;;;;;;4.40;3.23;;;22.50;99.90;;;;;;5091321;28;20552;-60
2023/07/15 00:43:03;;;;;;;3.37;2.93;;;21.80;99.90;;;;;;5079355;28;20517;-59
2023/07/15 00:45:30;;;;;;;4.03;3.70;;;21.90;99.90;;;;;;5079248;28;20470;-61
2023/07/15 00:48:04;;;;;;;5.37;3.47;;;21.80;99.90;;;;;;5079856;28;20530;-59
2023/07/15 00:50:31;;;;;;;4.13;3.73;;;22.10;99.90;;;;;;5079954;28;20926;-60
2023/07/15 00:52:58;;;;;;;5.60;3.70;;;21.70;99.90;;;;;;5079567;28;20517;-61
2023/07/15 00:55:27;;;;;;;3.87;3.57;;;21.70;99.90;;;;;;5079119;28;20454;-62
2023/07/15 00:57:57;;;;;;;6.73;3.30;;;;;;;;;;5079092;28;20466;-62
2023/07/15 01:00:25;;;;;;;3.57;3.00;;;;;;;;;;5078883;28;20469;-60
2023/07/15 01:02:52;;;;;;;5.07;3.60;;;;;;;;;;5079282;28;20959;-60
2023/07/15 01:05:21;;;;;;;3.30;3.00;;;22.00;99.90;;;;;;5078792;28;20529;-62
2023/07/15 01:07:48;;;;;;;6.47;3.53;;;;;;;;;;5079519;28;20445;-60
2023/07/15 01:10:15;;;;;;;3.67;3.20;;;21.60;99.90;;;;;;5079603;28;20774;-61
2023/07/15 01:12:42;;;;;;;5.83;3.83;;;21.70;99.90;;;;;;5079339;28;20496;-61
2023/07/15 01:15:09;;;;;;;5.00;3.60;;;;;;;;;;5079887;28;20525;-59
2023/07/15 01:17:36;;;;;;;3.30;2.80;;;;;;;;;;5079286;28;20543;-60
2023/07/15 01:20:05;;;;;;;5.60;3.90;;;21.70;99.90;;;;;;5079643;28;20442;-60
2023/07/15 01:22:37;;;;;;;4.00;3.33;;;21.60;99.90;;;;;;5078921;28;20524;-60
2023/07/15 01:25:06;;;;;;;5.10;3.63;;;21.30;99.90;;;;;;5079557;28;20426;-60
2023/07/15 01:27:33;;;;;;;3.90;3.50;;;21.30;99.90;;;;;;5079142;28;20956;-60
2023/07/15 01:30:01;;;;;;;3.80;3.40;;;;;;;;;;5079775;28;20469;-60
2023/07/15 01:32:28;;;;;;;5.10;3.70;;;;;;;;;;5079603;28;20466;-60
2023/07/15 01:34:55;;;;;;;4.93;3.90;;;;;;;;;;5078735;28;20922;-62
2023/07/15 01:37:22;;;;;;;4.10;3.40;;;21.40;99.90;;;;;;5078819;28;20581;-59
2023/07/15 01:39:50;;;;;;;5.03;3.63;;;21.30;99.90;;;;;;5079406;28;20914;-60
2023/07/15 01:42:17;;;;;;;4.70;3.53;;;21.30;99.90;;;;;;5079486;28;20993;-59
2023/07/15 01:44:44;;;;;;;3.83;3.40;;;;;;;;;;5078782;28;20446;-61
2023/07/15 01:47:11;;;;;;;3.50;3.20;;;21.30;99.90;;;;;;5082044;28;20494;-59
2023/07/15 01:49:38;;;;;;;3.67;3.30;;;;;;;;;;5083999;28;20441;-59
2023/07/15 01:52:06;;;;;;;4.43;3.50;;;21.50;99.90;;;;;;5083255;28;20553;-60
2023/07/15 01:54:35;;;;;;;6.10;3.73;;;21.10;99.90;;;;;;5082368;28;20499;-59
2023/07/15 01:57:04;;;;;;;4.43;3.50;;;20.90;99.90;;;;;;5083089;28;20910;-60
2023/07/15 01:59:37;;;;;;;4.43;3.43;;;;;;;;;;5084900;28;20502;-59
2023/07/15 02:02:04;;;;;;;4.80;3.73;;;21.10;99.90;;;;;;5096804;28;20469;-60
2023/07/15 02:04:31;;;;;;;3.97;3.57;;;;;;;;;;5085683;28;20454;-60
2023/07/15 02:06:58;;;;;;;4.60;3.40;;;21.00;99.90;;;;;;5082594;28;20457;-61
2023/07/15 02:09:28;;;;;;;4.90;3.40;;;20.80;99.90;;;;;;5082449;28;20430;-60
2023/07/15 02:11:55;;;;;;;5.33;3.77;;;;;;;;;;5082176;28;20461;-60
2023/07/15 02:14:23;;;;;;;4.93;4.03;;;21.10;99.90;;;;;;5082585;28;20466;-59
2023/07/15 02:16:50;;;;;;;6.67;4.50;;;;;;;;;;5082568;28;20450;-62
2023/07/15 02:19:18;;;;;;;9.53;3.90;;;;;;;;;;5082608;28;20522;-61
2023/07/15 02:21:45;;;;;;;4.03;3.30;;;;;;;;;;5082426;28;20536;-61
2023/07/15 02:24:12;;;;;;;5.77;3.90;;;;;;;;;;5081959;28;20490;-60
2023/07/15 02:26:43;;;;;;;4.20;3.80;;;;;;;;;;5081340;28;20506;-61
2023/07/15 02:29:18;;;;;;;3.77;3.07;;;21.20;99.90;;;;;;5082160;28;20466;-60
2023/07/15 02:31:46;;;;;;;4.70;4.23;;;20.80;99.90;;;;;;5082323;28;20916;-61
2023/07/15 02:34:14;;;;;;;4.00;3.60;;;;;;;;;;5082676;28;20494;-59
2023/07/15 02:36:43;;;;;;;4.47;3.20;;;20.60;99.90;;;;;;5082358;28;20446;-61
2023/07/15 02:39:10;;;;;;;3.87;3.50;;;20.50;99.90;;;;;;5082363;28;20573;-61
2023/07/15 02:41:37;;;;;;;5.93;3.57;;;21.10;99.90;;;;;;5082524;28;20975;-59
2023/07/15 02:44:05;;;;;;;4.33;3.90;;;;;;;;;;5082734;28;20530;-59
2023/07/15 02:46:32;;;;;;;6.97;4.27;;;;;;;;;;5081834;28;20450;-59
2023/07/15 02:49:00;;;;;;;5.43;4.33;;;20.30;99.90;;;;;;5081762;28;20470;-59
2023/07/15 02:51:28;;;;;;;4.63;4.23;;;;;;;;;;5081691;28;20450;-60
2023/07/15 02:53:55;;;;;;;3.43;3.13;;;;;;;;;;5081982;28;20446;-60
2023/07/15 02:56:23;;;;;;;9.43;4.27;;;20.30;99.90;;;;;;5082162;28;20473;-59
2023/07/15 02:58:49;;;;;;;5.60;3.53;;;20.70;99.90;;;;;;5081454;28;20517;-60
2023/07/15 03:01:16;;;;;;;4.97;4.03;;;20.40;99.90;;;;;;5081689;28;20450;-62
2023/07/15 03:03:43;;;;;;;5.40;4.17;;;20.50;99.90;;;;;;5081566;28;20526;-59
2023/07/15 03:06:12;;;;;;;5.10;4.50;;;20.60;99.90;;;;;;5081574;28;20581;-58
2023/07/15 03:08:39;;;;;;;6.30;4.07;;;20.20;99.90;;;;;;5081307;28;20439;-60
2023/07/15 03:11:08;;;;;;;4.20;3.67;;;20.20;99.90;;;;;;5080791;28;20485;-60
2023/07/15 03:13:37;;;;;;;13.67;4.00;;;;;;;;;;5081383;28;20453;-59
2023/07/15 03:16:05;;;;;;;4.47;3.67;;;20.90;99.90;;;;;;5081459;28;20520;-60
2023/07/15 03:18:32;;;;;;;3.73;3.13;;;;;;;;;;5081521;28;20989;-60
2023/07/15 03:20:59;;;;;;;3.63;3.33;;;;;;;;;;5080705;28;20988;-59
2023/07/15 03:23:28;;;;;;;5.70;4.30;;;20.40;99.90;;;;;;5080956;28;20447;-60
2023/07/15 03:25:57;;;;;;;7.50;3.80;;;20.10;99.90;;;;;;5081202;28;20470;-61
2023/07/15 03:28:24;;;;;;;4.90;4.20;;;20.30;99.90;;;;;;5081226;28;20838;-60
2023/07/15 03:30:52;;;;;;;4.13;3.70;;;20.00;99.90;;;;;;5081077;28;21004;-61
2023/07/15 03:33:18;;;;;;;4.17;3.73;;;20.20;99.90;;;;;;5080893;28;20442;-59
2023/07/15 03:35:48;;;;;;;5.63;4.80;;;20.30;99.90;;;;;;5080972;28;20552;-60
2023/07/15 03:38:18;;;;;;;7.40;4.60;;;20.30;99.90;;;;;;5081167;28;20562;-60
2023/07/15 03:40:50;;;;;;;5.07;3.80;;;20.50;99.90;;;;;;5081272;28;20430;-60
2023/07/15 03:43:17;;;;;;;8.97;4.03;;;;;;;;;;5081117;28;20461;-61
2023/07/15 03:45:47;;;;;;;7.93;4.53;;;20.20;99.90;;;;;;5080540;28;20529;-62
2023/07/15 03:48:14;;;;;;;4.60;4.10;;;20.50;99.90;;;;;;5081263;28;20423;-59
2023/07/15 03:50:40;;;;;;;5.10;3.53;;;20.20;99.90;;;;;;5081254;28;20832;-60
2023/07/15 03:53:07;;;;;;;4.00;3.50;;;19.70;99.90;;;;;;5081333;28;20471;-62
2023/07/15 03:55:37;;;;;;;5.40;4.90;;;21.00;99.90;;;;;;5081243;28;20482;-61
2023/07/15 03:58:05;;;;;;;5.57;4.07;;;19.80;99.90;;;;;;5080919;28;20470;-61
2023/07/15 04:00:32;;;;;;;4.40;4.00;;;20.20;99.90;;;;;;5080294;28;20446;-60
2023/07/15 04:02:58;;;;;;;7.03;4.30;;;20.30;99.90;;;;;;5079969;28;20561;-61
2023/07/15 04:05:27;;;;;;;5.63;4.43;;;20.00;99.90;;;;;;5080813;28;20473;-60
2023/07/15 04:07:57;;;;;;;5.30;4.80;;;19.90;99.90;;;;;;5080674;28;20498;-62
2023/07/15 04:10:24;;;;;;;6.60;3.77;;;;;;;;;;5080032;28;20493;-61
2023/07/15 04:12:51;;;;;;;9.03;4.47;;;20.00;99.90;;;;;;5081114;28;20462;-60
2023/07/15 04:15:19;;;;;;;5.63;4.43;;;20.00;99.90;;;;;;5080727;28;20506;-60
2023/07/15 04:17:49;;;;;;;4.57;4.17;;;20.80;99.90;;;;;;5080890;28;20942;-62
2023/07/15 04:20:17;;;;;;;4.23;3.83;;;20.20;99.90;;;;;;5080704;28;20583;-60
2023/07/15 04:22:44;;;;;;;4.87;3.93;;;20.30;99.90;;;;;;5081075;28;20551;-60
2023/07/15 04:25:12;;;;;;;5.00;3.47;;;20.20;99.90;;;;;;5081155;28;20474;-61
2023/07/15 04:27:39;;;;;;;5.03;3.83;;;20.20;99.90;;;;;;5080840;28;20513;-60
2023/07/15 04:30:07;;;;;;;5.83;4.13;;;20.50;99.90;;;;;;5081031;28;20427;-58
2023/07/15 04:32:36;;;;;;;6.33;4.47;;;20.30;99.90;;;;;;5081161;28;20473;-60
2023/07/15 04:35:04;;;;;;;6.60;4.23;;;20.30;99.90;;;;;;5080322;28;20461;-57
2023/07/15 04:37:31;;;;;;;5.80;5.20;;;;;;;;;;5080520;28;20831;-58
2023/07/15 04:39:58;;;;;;;5.20;4.23;;;20.50;99.90;;;;;;5080140;28;20476;-59
2023/07/15 04:42:25;;;;;;;4.67;4.00;;;;;;;;;;5078734;28;20514;-60
2023/07/15 04:44:52;;;;;;;3.60;3.30;;;20.50;99.90;;;;;;5077764;28;20538;-61
2023/07/15 04:47:19;;;;;;;5.57;4.33;;;;;;;;;;5077346;28;20522;-61
2023/07/15 04:49:47;;;;;;;5.93;4.43;;;20.80;99.90;;;;;;5077715;28;20510;-59
2023/07/15 04:52:14;;;;;;;4.90;4.50;;;20.70;99.90;;;;;;5078025;28;20442;-60
2023/07/15 04:54:42;;;;;;;4.27;3.87;;;;;;;;;;5077656;28;20466;-59
2023/07/15 04:57:10;;;;;;;5.60;5.10;;;;;;;;;;5077061;28;20512;-61
2023/07/15 04:59:37;;;;;;;4.47;3.83;;;;;;;;;;5077163;28;20485;-60
2023/07/15 05:02:04;;;;;;;5.97;4.00;;;;;;;;;;5077231;28;20507;-59
2023/07/15 05:04:31;;;;;;;3.67;3.37;;;;;;;;;;5081171;28;20485;-62
2023/07/15 05:06:59;;;;;;;4.90;4.27;;;21.30;99.90;;;;;;5079738;28;20470;-60
2023/07/15 05:09:31;;;;;;;4.40;4.07;;;;;;;;;;5080016;28;20596;-60
2023/07/15 05:11:58;;;;;;;11.83;4.27;;;;;;;;;;5079422;28;20456;-59
2023/07/15 05:14:25;;;;;;;5.40;4.13;;;;;;;;;;5080126;28;20474;-59
2023/07/15 05:16:52;;;;;;;7.10;4.27;;;21.20;99.90;;;;;;5088401;28;20447;-60
2023/07/15 05:19:19;;;;;;;4.73;4.23;;;21.00;99.90;;;;;;5088226;28;20513;-59
2023/07/15 05:21:46;;;;;;;6.57;4.93;;;21.00;99.90;;;;;;5083256;28;20517;-60
2023/07/15 05:24:15;;;;;;;7.67;4.50;;;21.40;99.90;;;;;;5083487;28;20448;-60
2023/07/15 05:26:42;;;;;;;4.43;4.03;;;;;;;;;;5083788;28;20441;-60
2023/07/15 05:29:09;;;;;;;5.43;4.93;;;21.30;99.90;;;;;;5083840;28;20470;-59
2023/07/15 05:31:36;;;;;;;4.90;4.40;;;;;;;;;;5083962;28;20434;-60
2023/07/15 05:34:04;;;;;;;6.00;3.70;;;21.40;99.90;;;;;;5083976;28;20446;-60
2023/07/15 05:36:30;;;;;;;4.87;4.37;;;21.30;99.90;;;;;;5083481;28;20461;-60
2023/07/15 05:38:57;;;;;;;4.53;4.10;;;21.70;99.90;;;;;;5083660;28;20524;-60
2023/07/15 05:41:25;;;;;;;5.60;4.37;;;21.70;99.90;;;;;;5083373;28;20438;-62
2023/07/15 05:43:52;;;;;;;4.37;3.90;;;21.60;99.90;;;;;;5083415;28;20998;-59
2023/07/15 05:46:19;;;;;;;4.30;3.60;;;;;;;;;;5083158;28;20522;-61
2023/07/15 05:48:46;;;;;;;5.47;4.90;;;21.70;99.90;;;;;;5083136;28;20446;-60
2023/07/15 05:51:13;;;;;;;5.97;4.60;;;21.90;99.90;;;;;;5083730;28;20519;-59
2023/07/15 05:53:43;;;;;;;4.77;4.30;;;22.30;99.90;;;;;;5082625;28;20579;-58
2023/07/15 05:56:10;;;;;;;6.10;4.50;;;;;;;;;;5083305;28;20480;-60
2023/07/15 05:58:41;;;;;;;5.40;4.10;;;22.10;99.90;;;;;;5083551;28;20474;-59
2023/07/15 06:01:08;;;;;;;7.37;4.00;;;;;;;;;;5083056;28;20466;-59
2023/07/15 06:03:35;;;;;;;5.17;4.67;;;22.50;99.90;;;;;;5083140;28;20509;-61
2023/07/15 06:06:02;;;;;;;3.90;3.60;;;21.90;99.90;;;;;;5084086;28;20494;-60
2023/07/15 06:08:31;;;;;;;7.43;4.87;;;;;;;;;;5085768;28;20461;-59
2023/07/15 06:10:59;;;;;;;5.27;4.47;;;;;;;;;;5089748;28;20474;-61
2023/07/15 06:13:25;;;;;;;6.63;4.00;;;22.40;99.90;;;;;;5083302;28;20442;-61
2023/07/15 06:15:54;;;;;;;4.00;3.70;;;22.60;99.90;;;;;;5083068;28;20478;-61
2023/07/15 06:18:21;;;;;;;4.87;4.27;;;22.70;99.90;;;;;;5082630;28;20537;-60
2023/07/15 06:20:50;;;;;;;4.43;4.10;;;22.60;99.90;;;;;;5082377;28;20517;-63
2023/07/15 06:23:17;;;;;;;4.43;3.57;;;23.10;99.90;;;;;;5082618;28;20441;-61
2023/07/15 06:25:44;;;;;;;4.80;3.97;;;;;;;;;;5082736;28;20515;-61
2023/07/15 06:28:11;;;;;;;4.47;4.07;;;;;;;;;;5082381;28;20457;-60
2023/07/15 06:30:38;;;;;;;6.33;4.13;;;;;;;;;;5082827;28;20515;-60
2023/07/15 06:33:08;;;;;;;6.80;4.10;;;23.10;99.90;;;;;;5081465;28;20851;-60
2023/07/15 06:35:35;;;;;;;4.37;3.83;;;;;;;;;;5082241;28;20443;-61
2023/07/15 06:38:02;;;;;;;5.47;4.47;;;;;;;;;;5082070;28;20513;-59
2023/07/15 06:40:29;;;;;;;6.47;3.80;;;;;;;;;;5082498;28;20477;-61
2023/07/15 06:42:56;;;;;;;5.20;4.00;;;23.50;99.90;;;;;;5082348;28;20557;-58
2023/07/15 06:45:33;;;;;;;5.23;3.63;;;23.60;99.90;;;;;;5081824;28;20468;-60
2023/07/15 06:48:00;;;;;;;4.67;3.50;;;;;;;;;;5081482;28;20473;-60
2023/07/15 06:50:29;;;;;;;4.37;3.97;;;23.90;99.90;;;;;;5081715;28;20502;-59
2023/07/15 06:52:56;;;;;;;10.67;3.93;;;;;;;;;;5083937;28;21014;-60
2023/07/15 06:55:23;;;;;;;4.00;3.60;;;24.00;99.90;;;;;;5082506;28;20478;-60
2023/07/15 06:57:50;;;;;;;5.23;3.97;;;24.20;99.90;;;;;;5081230;28;20504;-60
2023/07/15 07:00:17;;;;;;;4.50;3.40;;;24.00;99.90;;;;;;5081165;28;20600;-60
2023/07/15 07:02:45;;;;;;;5.70;3.80;;;;;;;;;;5081156;28;20470;-61
2023/07/15 07:05:11;;;;;;;4.00;3.60;;;24.30;99.90;;;;;;5081680;28;20526;-60
2023/07/15 07:07:40;;;;;;;5.07;4.57;;;24.30;99.90;;;;;;5081313;28;20462;-60
2023/07/15 07:10:14;;;;;;;5.27;3.60;;;24.40;99.90;;;;;;5080873;28;20459;-60
2023/07/15 07:12:43;;;;;;;4.53;3.90;;;24.80;99.90;;;;;;5080467;28;20537;-61
2023/07/15 07:15:13;;;;;;;4.67;4.17;;;25.00;99.90;;;;;;5080138;28;20445;-60
2023/07/15 07:17:40;;;;;;;7.70;4.10;;;25.10;99.90;;;;;;5080781;28;20442;-59
2023/07/15 07:20:08;;;;;;;4.13;3.70;;;25.40;99.90;;;;;;5080901;28;20498;-60
2023/07/15 07:22:35;;;;;;;4.37;3.97;;;25.40;99.90;;;;;;5080759;28;20457;-59
2023/07/15 07:25:04;;;;;;;3.47;3.17;;;27.10;99.90;;;;;;5079751;28;20959;-60
2023/07/15 07:27:30;;;;;;;4.33;3.53;;;28.30;99.90;;;;;;5079443;28;20477;-60
2023/07/15 07:29:59;;;;;;;4.87;3.40;;;30.00;99.90;;;;;;5078820;28;20545;-61
2023/07/15 07:32:26;;;;;;;4.00;3.60;;;;;;;;;;5079518;28;20446;-61
2023/07/15 07:34:53;;;;;;;5.53;3.80;;;;;;;;;;5079365;28;20537;-60
2023/07/15 07:37:21;;;;;;;3.77;3.37;;;34.20;95.20;;;;;;5079278;28;20514;-61
2023/07/15 07:39:48;;;;;;;6.40;3.70;;;;;;;;;;5079531;28;20497;-60
2023/07/15 07:42:17;;;;;;;4.20;3.80;;;36.80;88.00;;;;;;5079633;28;20478;-62
2023/07/15 07:44:46;;;;;;;4.10;3.70;;;37.50;52.40;;;;;;5079135;28;20505;-60
2023/07/15 07:47:14;;;;;;;3.33;3.00;;;38.20;81.70;;;;;;5079434;28;20493;-61
2023/07/15 07:49:41;;;;;;;4.50;3.40;;;;;;;;;;5079238;28;20545;-60
2023/07/15 07:52:08;;;;;;;5.57;3.57;;;38.90;75.00;;;;;;5079481;28;20458;-61
2023/07/15 07:54:36;;;;;;;4.23;3.80;;;39.50;74.90;;;;;;5079275;28;20481;-61
2023/07/15 07:57:02;;;;;;;4.07;3.67;;;39.70;73.80;;;;;;5079170;28;20542;-61
2023/07/15 07:59:31;;;;;;;4.60;3.80;;;40.50;63.30;;;;;;5079160;28;20506;-61
2023/07/15 08:01:59;;;;;;;4.27;3.87;;;;;;;;;;5078718;28;20446;-61
2023/07/15 08:04:26;;;;;;;4.03;3.40;;;;;;;;;;5079206;28;20446;-64
2023/07/15 08:06:53;;;;;;;3.63;3.33;;;41.10;68.70;;;;;;5078938;28;20462;-60
2023/07/15 08:09:20;;;;;;;3.67;3.37;;;41.00;68.70;;;;;;5079367;28;20500;-61
2023/07/15 08:11:47;;;;;;;4.70;4.00;;;41.50;66.50;;;;;;5080376;28;20603;-60
2023/07/15 08:14:14;;;;;;;4.77;3.47;;;;;;;;;;5080128;28;20521;-58
2023/07/15 08:16:42;;;;;;;6.60;3.87;;;41.80;40.20;;;;;;5079806;28;20541;-60
2023/07/15 08:19:09;;;;;;;4.40;3.10;;;41.70;59.60;;;;;;5078621;28;20537;-60
2023/07/15 08:21:36;;;;;;;4.73;3.23;;;41.50;57.80;;;;;;5078416;28;20503;-63
2023/07/15 08:24:03;;;;;;;4.03;3.73;;;41.40;65.40;;;;;;5079050;28;20465;-61
2023/07/15 08:26:30;;;;;;;3.80;3.30;;;41.40;67.30;;;;;;5074891;28;20788;-62
2023/07/15 08:28:58;;;;;;;4.50;3.53;;;;;;;;;;5074991;28;20477;-62
2023/07/15 08:31:25;;;;;;;3.57;3.27;;;41.30;58.10;;;;;;5075814;28;20472;-61
2023/07/15 08:33:54;;;;;;;4.07;3.47;;;;;;;;;;5076543;28;20466;-61
2023/07/15 08:36:22;;;;;;;3.93;3.53;;;;;;;;;;5076546;28;20489;-61
2023/07/15 08:38:49;;;;;;;3.73;3.43;;;41.50;39.00;;;;;;5076840;28;20450;-62
2023/07/15 08:41:17;;;;;;;3.30;3.03;;;;;;;;;;5078374;28;20585;-61
2023/07/15 08:43:45;;;;;;;3.40;3.10;;;;;;;;;;5079546;28;20450;-60
2023/07/15 08:46:22;;;;;;;4.60;4.20;;;42.10;64.90;;;;;;5078502;28;20501;-60
2023/07/15 08:48:49;;;;;;;3.80;3.40;;;41.60;64.50;;;;;;5084991;28;20430;-62
2023/07/15 08:51:18;;;;;;;3.90;3.50;;;42.00;64.30;;;;;;5085437;28;20497;-61
2023/07/15 08:53:46;;;;;;;3.80;3.40;;;41.90;38.00;;;;;;5092294;28;20422;-59
2023/07/15 08:56:14;;;;;;;3.63;2.90;;;41.90;38.60;;;;;;5094073;28;20469;-62
2023/07/15 08:58:41;;;;;;;3.63;3.27;;;42.10;62.60;;;;;;5093505;28;20441;-63
2023/07/15 09:01:09;;;;;;;3.53;3.23;;;41.90;56.60;;;;;;5087625;28;20550;-61
2023/07/15 09:03:36;;;;;;;4.87;3.70;;;41.70;64.50;;;;;;5088310;28;20426;-62
2023/07/15 09:06:03;;;;;;;3.30;3.03;;;;;;;;;;5087290;28;20480;-61
2023/07/15 09:08:31;;;;;;;3.53;3.20;;;41.90;37.40;;;;;;5089129;28;20519;-60
2023/07/15 09:10:59;;;;;;;5.73;3.53;;;41.50;63.00;;;;;;5091324;28;20461;-60
2023/07/15 09:13:27;;;;;;;4.53;3.67;;;41.90;37.70;;;;;;5091720;28;20466;-61
2023/07/15 09:15:54;;;;;;;4.93;2.73;;;;;;;;;;5086335;28;20466;-61
2023/07/15 09:18:21;;;;;;;5.30;3.20;;;41.60;38.10;;;;;;5085330;28;20525;-59
2023/07/15 09:20:49;;;;;;;3.40;3.10;;;;;;;;;;5087537;28;20477;-60
2023/07/15 09:23:18;;;;;;;4.40;3.93;;;42.00;37.60;;;;;;5089838;28;20811;-61
2023/07/15 09:25:52;;;;;;;3.80;3.50;;;42.20;65.20;;;;;;5092772;28;20442;-60
2023/07/15 09:28:20;;;;;;;3.37;3.07;;;42.60;57.00;;;;;;5090586;28;20490;-59
2023/07/15 09:30:47;;;;;;;3.90;3.10;;;42.20;37.30;;;;;;5093205;28;20438;-60
2023/07/15 09:33:29;;;;;;;3.53;3.23;;;41.00;63.10;;;;;;5086425;28;20512;-61
2023/07/15 09:35:56;;;;;;;3.20;2.90;;;;;;;;;;5085812;28;20427;-61
2023/07/15 09:38:23;;;;;;;3.10;2.70;;;;;;;;;;5084805;28;20494;-60
2023/07/15 09:40:52;;;;;;;4.00;3.07;;;40.90;53.30;;;;;;5085174;28;20497;-60
2023/07/15 09:43:19;;;;;;;3.70;2.90;;;;;;;;;;5085932;28;20466;-59
2023/07/15 09:45:46;;;;;;;5.03;4.10;;;41.00;64.20;;;;;;5085011;28;20499;-60
2023/07/15 09:48:16;;;;;;;3.30;2.70;;;41.30;38.10;;;;;;5087403;28;20470;-62
2023/07/15 09:50:43;;;;;;;3.17;2.87;;;41.50;37.90;;;;;;5096391;28;20430;-59
2023/07/15 09:53:11;;;;;;;3.13;2.83;;;41.60;63.60;;;;;;5095258;28;20950;-60
2023/07/15 09:55:39;;;;;;;6.50;3.23;;;41.20;65.20;;;;;;5085394;28;20466;-61
2023/07/15 09:58:13;;;;;;;3.27;2.80;;;41.00;63.80;;;;;;5086593;28;20915;-55
2023/07/15 10:00:46;;;;;;;3.70;2.73;;;41.10;59.30;;;;;;5085391;28;20794;-60
2023/07/15 10:03:22;;;;;;;5.70;2.90;;;41.00;65.20;;;;;;5084439;28;20538;-59
2023/07/15 10:05:49;;;;;;;3.93;3.57;;;;;;;;;;5083164;28;20430;-60
2023/07/15 10:08:16;;;;;;;3.43;3.13;;;;;;;;;;5082159;28;20549;-62
2023/07/15 10:10:44;;;;;;;4.50;3.87;;;40.40;38.90;;;;;;5084680;28;20730;-59
2023/07/15 10:13:15;;;;;;;3.50;3.03;;;40.10;58.40;;;;;;5084510;28;20430;-60
2023/07/15 10:15:44;;;;;;;3.67;3.00;;;40.50;58.70;;;;;;5085559;28;20472;-59
2023/07/15 10:18:18;;;;;;;2.60;2.40;;;40.20;67.20;;;;;;5086150;28;20442;-61
2023/07/15 10:20:47;;;;;;;3.80;3.40;;;40.00;67.60;;;;;;5085492;28;20561;-60
2023/07/15 10:23:24;;;;;;;3.40;3.10;;;40.10;68.80;;;;;;5080528;28;20504;-60
2023/07/15 10:25:58;;;;;;;9.63;3.20;;;39.80;38.90;;;;;;5077167;28;20434;-61
2023/07/15 10:28:30;;;;;;;3.73;3.43;;;39.60;68.10;;;;;;5079555;28;20854;-60
2023/07/15 10:31:08;;;;;;;2.90;2.70;;;39.40;64.80;;;;;;5083850;28;20427;-60
2023/07/15 10:33:36;;;;;;;3.47;3.17;;;;;;;;;;5080985;28;20441;-61
2023/07/15 10:36:05;;;;;;;3.03;2.73;;;39.20;69.40;;;;;;5081983;28;20461;-59
2023/07/15 10:38:33;;;;;;;3.13;2.83;;;39.00;69.40;;;;;;5081757;28;20724;-61
2023/07/15 10:41:02;;;;;;;3.20;2.83;;;39.10;59.80;;;;;;5081097;28;20536;-59
2023/07/15 10:43:42;;;;;;;8.53;6.30;;;38.60;58.70;;;;;;5085974;28;20439;-58
2023/07/15 10:46:11;;;;;;;4.10;3.27;;;38.50;39.40;;;;;;5084365;28;20499;-61
2023/07/15 10:48:38;;;;;;;5.53;4.00;;;38.40;69.30;;;;;;5081088;28;20477;-60
2023/07/15 10:51:07;;;;;;;3.27;2.97;;;38.10;66.50;;;;;;5078707;28;20554;-60
2023/07/15 10:53:35;;;;;;;4.23;3.83;;;37.90;60.00;;;;;;5076290;28;20453;-61
2023/07/15 10:56:03;;;;;;;3.80;3.20;;;37.60;69.50;;;;;;5076499;28;20557;-60
2023/07/15 10:58:32;;;;;;;3.30;3.00;;;37.40;40.20;;;;;;5077813;28;20514;-60
2023/07/15 11:01:01;;;;;;;4.10;3.30;;;37.40;41.10;;;;;;5079859;28;20478;-59
2023/07/15 11:03:29;;;;;;;5.27;4.40;;;37.30;69.10;;;;;;5080423;28;20438;-60
2023/07/15 11:05:59;;;;;;;5.10;3.10;;;37.00;61.60;;;;;;5080666;28;20466;-60
2023/07/15 11:08:26;;;;;;;4.13;3.73;;;37.30;42.00;;;;;;5083094;28;20453;-61
2023/07/15 11:11:00;;;;;;;3.90;3.50;;;;;;;;;;5083209;28;20481;-60
2023/07/15 11:13:27;;;;;;;3.57;3.27;;;;;;;;;;5080351;28;20446;-57
2023/07/15 11:15:54;;;;;;;3.50;3.20;;;37.20;62.60;;;;;;5079101;28;20549;-59
2023/07/15 11:18:25;;;;;;;4.60;3.40;;;37.00;72.40;;;;;;5075606;28;20441;-60
2023/07/15 11:20:54;;;;;;;4.37;3.83;;;36.20;47.90;;;;;;5076122;28;20501;-60
2023/07/15 11:23:21;;;;;;;4.00;3.53;;;37.20;64.70;;;;;;5076310;28;20501;-61
2023/07/15 11:25:49;;;;;;;3.50;3.20;;;36.90;59.70;;;;;;5075969;28;20452;-61
2023/07/15 11:28:17;;;;;;;4.03;2.70;;;36.80;64.70;;;;;;5078622;28;20462;-60
2023/07/15 11:30:45;;;;;;;3.00;2.70;;;36.80;70.70;;;;;;5078595;28;20529;-59
2023/07/15 11:33:13;;;;;;;2.40;2.20;;;37.10;40.00;;;;;;5075858;28;20478;-60
2023/07/15 11:35:43;;;;;;;4.37;2.80;;;36.60;39.30;;;;;;5075549;28;20442;-59
2023/07/15 11:38:13;;;;;;;4.40;2.90;;;36.70;39.70;;;;;;5075535;28;20852;-58
2023/07/15 11:40:51;;;;;;;3.90;3.50;;;36.60;68.80;;;;;;5080195;28;20861;-61
2023/07/15 11:43:19;;;;;;;2.37;2.17;;;;;;;;;;5076076;28;20481;-60
2023/07/15 11:45:46;;;;;;;3.80;2.40;;;36.90;60.00;;;;;;5075246;28;20773;-59
2023/07/15 11:48:13;;;;;;;2.93;2.50;;;;;;;;;;5075642;28;20831;-61
2023/07/15 11:50:41;;;;;;;2.70;2.47;;;36.20;68.90;;;;;;5076757;28;20473;-59
2023/07/15 11:53:23;;;;;;;4.47;4.03;;;36.50;61.60;;;;;;5077532;28;20561;-59
2023/07/15 11:55:50;;;;;;;3.60;2.53;;;36.30;60.40;;;;;;5077660;28;20514;-61
2023/07/15 11:58:39;;;;;;;4.20;2.67;;;36.50;70.20;;;;;;5077308;28;20853;-60
2023/07/15 12:01:06;;;;;;;10.27;2.17;;;36.80;62.50;;;;;;5078485;28;20557;-59
2023/07/15 12:03:33;;;;;;;2.50;2.30;;;36.40;70.60;;;;;;5079605;28;20557;-60
2023/07/15 12:06:01;;;;;;;2.80;2.60;;;36.50;68.20;;;;;;5079675;28;20537;-61
2023/07/15 12:08:28;;;;;;;3.60;2.73;;;;;;;;;;5079727;28;20473;-60
2023/07/15 12:10:58;;;;;;;2.33;2.03;;;36.40;39.20;;;;;;5078819;28;20494;-61
2023/07/15 12:13:26;;;;;;;2.30;2.10;;;36.50;63.80;;;;;;5079099;28;20462;-61
2023/07/15 12:15:52;;;;;;;3.10;2.53;;;36.40;62.90;;;;;;5079336;28;20450;-60
2023/07/15 12:18:19;;;;;;;3.63;3.13;;;36.00;61.10;;;;;;5078997;28;20474;-60
2023/07/15 12:20:46;;;;;;;2.30;2.10;;;36.10;61.70;;;;;;5078693;28;20521;-59
2023/07/15 12:23:15;;;;;;;3.67;2.80;;;35.90;68.30;;;;;;5078894;28;20557;-60
2023/07/15 12:25:41;;;;;;;2.70;2.50;;;35.80;69.80;;;;;;5079235;28;20446;-60
2023/07/15 12:28:08;;;;;;;2.60;2.27;;;35.60;70.30;;;;;;5082263;28;20530;-58
2023/07/15 12:30:37;;;;;;;5.00;2.40;;;35.80;39.90;;;;;;5079881;28;20434;-59
2023/07/15 12:33:04;;;;;;;2.70;2.50;;;35.80;60.70;;;;;;5078806;28;20492;-61
2023/07/15 12:35:33;;;;;;;2.50;2.30;;;35.00;70.10;;;;;;5079149;28;20509;-60
2023/07/15 12:37:59;;;;;;;2.67;2.47;;;35.50;70.40;;;;;;5081217;28;20556;-59
2023/07/15 12:40:29;;;;;;;2.33;2.10;;;35.40;69.00;;;;;;5090100;28;20443;-60
2023/07/15 12:42:56;;;;;;;2.37;1.87;;;35.50;68.80;;;;;;5080211;28;21025;-60
2023/07/15 12:45:23;;;;;;;2.87;2.67;;;35.50;59.60;;;;;;5078617;28;20453;-60
2023/07/15 12:47:50;;;;;;;2.17;1.90;;;35.90;60.00;;;;;;5079552;28;20457;-60
2023/07/15 12:50:17;;;;;;;2.83;2.33;;;35.40;71.40;;;;;;5079452;28;20513;-60
2023/07/15 12:52:44;;;;;;;2.33;2.13;;;;;;;;;;5079426;28;20442;-60
2023/07/15 12:55:13;;;;;;;2.63;2.43;;;35.50;70.40;;;;;;5080109;28;20549;-62
2023/07/15 12:57:44;;;;;;;3.60;2.30;;;35.40;61.60;;;;;;5079359;28;20489;-60
2023/07/15 13:00:12;;;;;;;2.97;2.10;;;35.40;70.10;;;;;;5079065;28;21008;-59
2023/07/15 13:02:39;;;;;;;2.97;2.30;;;;;;;;;;5079471;28;20880;-60
2023/07/15 13:05:07;;;;;;;4.23;2.00;;;;;;;;;;5080935;28;20494;-59
2023/07/15 13:07:34;;;;;;;2.47;2.20;;;35.80;61.10;;;;;;5083602;28;20865;-60
2023/07/15 13:10:01;;;;;;;2.70;2.37;;;35.50;60.20;;;;;;5078836;28;20497;-61
2023/07/15 13:12:28;;;;;;;3.07;2.40;;;;;;;;;;5079423;28;20488;-60
2023/07/15 13:14:56;;;;;;;2.20;2.00;;;36.00;39.60;;;;;;5085028;28;20509;-61
2023/07/15 13:17:23;;;;;;;2.17;1.93;;;35.90;60.60;;;;;;5079533;28;20487;-59
2023/07/15 13:19:50;;;;;;;3.83;2.53;;;;;;;;;;5080215;28;20494;-59